sensor_id;sensor_type;location;lat;lon;timestamp;temperature;humidity
44990;DHT22;30723;51.206;3.326;2023-10-31T00:01:52;11.40;99.90
44990;DHT22;30723;51.206;3.326;2023-10-31T00:04:17;11.50;99.90
44990;DHT22;30723;51.206;3.326;2023-10-31T00:06:43;11.40;99.90
44990;DHT22;30723;51.206;3.326;2023-10-31T00:09:09;11.40;99.90
44990;DHT22;30723;51.206;3.326;2023-10-31T00:11:36;11.30;99.90
44990;DHT22;30723;51.206;3.326;2023-10-31T00:14:03;11.40;99.90
44990;DHT22;30723;51.206;3.326;2023-10-31T00:16:29;11.30;99.90
44990;DHT22;30723;51.206;3.326;2023-10-31T00:18:54;11.30;99.90
44990;DHT22;30723;51.206;3.326;2023-10-31T00:21:20;11.30;99.90
44990;DHT22;30723;51.206;3.326;2023-10-31T00:23:47;11.30;99.90
44990;DHT22;30723;51.206;3.326;2023-10-31T00:26:14;11.30;99.90
44990;DHT22;30723;51.206;3.326;2023-10-31T00:28:40;11.30;99.90
44990;DHT22;30723;51.206;3.326;2023-10-31T00:31:05;11.30;99.90
44990;DHT22;30723;51.206;3.326;2023-10-31T00:33:36;11.20;99.90
44990;DHT22;30723;51.206;3.326;2023-10-31T00:36:02;11.10;99.90
44990;DHT22;30723;51.206;3.326;2023-10-31T00:38:29;11.10;99.90
44990;DHT22;30723;51.206;3.326;2023-10-31T00:40:55;11.10;99.90
44990;DHT22;30723;51.206;3.326;2023-10-31T00:43:20;11.10;99.90
44990;DHT22;30723;51.206;3.326;2023-10-31T00:45:46;11.10;99.90
44990;DHT22;30723;51.206;3.326;2023-10-31T00:48:12;11.20;99.90
44990;DHT22;30723;51.206;3.326;2023-10-31T00:50:38;11.20;99.90
44990;DHT22;30723;51.206;3.326;2023-10-31T00:53:03;11.10;99.90
44990;DHT22;30723;51.206;3.326;2023-10-31T00:55:29;11.10;99.90
44990;DHT22;30723;51.206;3.326;2023-10-31T00:57:55;11.20;99.90
44990;DHT22;30723;51.206;3.326;2023-10-31T01:00:21;11.10;99.90
44990;DHT22;30723;51.206;3.326;2023-10-31T01:02:46;11.10;99.90
44990;DHT22;30723;51.206;3.326;2023-10-31T01:05:12;11.10;99.90
44990;DHT22;30723;51.206;3.326;2023-10-31T01:07:38;11.10;99.90
44990;DHT22;30723;51.206;3.326;2023-10-31T01:10:04;11.10;99.90
44990;DHT22;30723;51.206;3.326;2023-10-31T01:12:30;11.10;99.90
44990;DHT22;30723;51.206;3.326;2023-10-31T01:14:56;11.10;99.90
44990;DHT22;30723;51.206;3.326;2023-10-31T01:17:22;11.10;99.90
44990;DHT22;30723;51.206;3.326;2023-10-31T01:19:48;11.10;99.90
44990;DHT22;30723;51.206;3.326;2023-10-31T01:22:14;11.00;99.90
44990;DHT22;30723;51.206;3.326;2023-10-31T01:24:40;11.10;99.90
44990;DHT22;30723;51.206;3.326;2023-10-31T01:27:06;11.20;99.90
44990;DHT22;30723;51.206;3.326;2023-10-31T01:29:31;11.10;99.90
44990;DHT22;30723;51.206;3.326;2023-10-31T01:31:57;11.10;99.90
44990;DHT22;30723;51.206;3.326;2023-10-31T01:34:23;11.00;99.90
44990;DHT22;30723;51.206;3.326;2023-10-31T01:36:49;11.00;99.90
44990;DHT22;30723;51.206;3.326;2023-10-31T01:39:14;10.90;99.90
44990;DHT22;30723;51.206;3.326;2023-10-31T01:41:43;10.90;99.90
44990;DHT22;30723;51.206;3.326;2023-10-31T01:44:09;10.80;99.90
44990;DHT22;30723;51.206;3.326;2023-10-31T01:46:36;10.70;99.90
44990;DHT22;30723;51.206;3.326;2023-10-31T01:49:02;10.70;99.90
44990;DHT22;30723;51.206;3.326;2023-10-31T01:51:28;10.60;99.90
44990;DHT22;30723;51.206;3.326;2023-10-31T01:53:55;10.60;99.90
44990;DHT22;30723;51.206;3.326;2023-10-31T01:56:22;10.50;99.90
44990;DHT22;30723;51.206;3.326;2023-10-31T01:58:49;10.50;99.90
44990;DHT22;30723;51.206;3.326;2023-10-31T02:01:15;10.50;99.90
44990;DHT22;30723;51.206;3.326;2023-10-31T02:03:41;10.50;99.90
44990;DHT22;30723;51.206;3.326;2023-10-31T02:06:07;10.40;99.90
44990;DHT22;30723;51.206;3.326;2023-10-31T02:08:33;10.40;99.90
44990;DHT22;30723;51.206;3.326;2023-10-31T02:10:59;10.40;99.90
44990;DHT22;30723;51.206;3.326;2023-10-31T02:13:24;10.30;99.90
44990;DHT22;30723;51.206;3.326;2023-10-31T02:15:50;10.20;99.90
44990;DHT22;30723;51.206;3.326;2023-10-31T02:18:16;10.20;99.90
44990;DHT22;30723;51.206;3.326;2023-10-31T02:20:42;10.20;99.90
44990;DHT22;30723;51.206;3.326;2023-10-31T02:23:08;10.20;99.90
44990;DHT22;30723;51.206;3.326;2023-10-31T02:25:34;10.30;99.90
44990;DHT22;30723;51.206;3.326;2023-10-31T02:27:59;10.30;99.90
44990;DHT22;30723;51.206;3.326;2023-10-31T02:30:26;10.30;99.90
44990;DHT22;30723;51.206;3.326;2023-10-31T02:32:52;10.30;99.90
44990;DHT22;30723;51.206;3.326;2023-10-31T02:35:18;10.40;99.90
44990;DHT22;30723;51.206;3.326;2023-10-31T02:37:45;10.40;99.90
44990;DHT22;30723;51.206;3.326;2023-10-31T02:40:12;10.40;99.90
44990;DHT22;30723;51.206;3.326;2023-10-31T02:42:37;10.30;99.90
44990;DHT22;30723;51.206;3.326;2023-10-31T02:45:04;10.30;99.90
44990;DHT22;30723;51.206;3.326;2023-10-31T02:47:30;10.30;99.90
44990;DHT22;30723;51.206;3.326;2023-10-31T02:49:56;10.30;99.90
44990;DHT22;30723;51.206;3.326;2023-10-31T02:52:22;10.30;99.90
44990;DHT22;30723;51.206;3.326;2023-10-31T02:54:48;10.20;99.90
44990;DHT22;30723;51.206;3.326;2023-10-31T02:57:15;10.20;99.90
44990;DHT22;30723;51.206;3.326;2023-10-31T02:59:41;10.10;99.90
44990;DHT22;30723;51.206;3.326;2023-10-31T03:02:07;10.10;99.90
44990;DHT22;30723;51.206;3.326;2023-10-31T03:04:32;10.10;99.90
44990;DHT22;30723;51.206;3.326;2023-10-31T03:06:58;10.10;99.90
44990;DHT22;30723;51.206;3.326;2023-10-31T03:09:24;10.10;99.90
44990;DHT22;30723;51.206;3.326;2023-10-31T03:11:50;10.10;99.90
44990;DHT22;30723;51.206;3.326;2023-10-31T03:14:15;10.10;99.90
44990;DHT22;30723;51.206;3.326;2023-10-31T03:16:41;10.10;99.90
44990;DHT22;30723;51.206;3.326;2023-10-31T03:19:07;10.00;99.90
44990;DHT22;30723;51.206;3.326;2023-10-31T03:21:33;10.10;99.90
44990;DHT22;30723;51.206;3.326;2023-10-31T03:23:59;10.10;99.90
44990;DHT22;30723;51.206;3.326;2023-10-31T03:26:24;10.10;99.90
44990;DHT22;30723;51.206;3.326;2023-10-31T03:28:50;10.10;99.90
44990;DHT22;30723;51.206;3.326;2023-10-31T03:31:16;10.10;99.90
44990;DHT22;30723;51.206;3.326;2023-10-31T03:33:42;10.10;99.90
44990;DHT22;30723;51.206;3.326;2023-10-31T03:36:09;10.10;99.90
44990;DHT22;30723;51.206;3.326;2023-10-31T03:38:35;10.10;99.90
44990;DHT22;30723;51.206;3.326;2023-10-31T03:41:02;10.10;99.90
44990;DHT22;30723;51.206;3.326;2023-10-31T03:43:28;10.10;99.90
44990;DHT22;30723;51.206;3.326;2023-10-31T03:45:54;10.10;99.90
44990;DHT22;30723;51.206;3.326;2023-10-31T03:48:20;10.10;99.90
44990;DHT22;30723;51.206;3.326;2023-10-31T03:50:46;10.10;99.90
44990;DHT22;30723;51.206;3.326;2023-10-31T03:53:12;10.10;99.90
44990;DHT22;30723;51.206;3.326;2023-10-31T03:55:38;10.10;99.90
44990;DHT22;30723;51.206;3.326;2023-10-31T03:58:03;10.20;99.90
44990;DHT22;30723;51.206;3.326;2023-10-31T04:00:29;10.20;99.90
44990;DHT22;30723;51.206;3.326;2023-10-31T04:02:55;10.20;99.90
44990;DHT22;30723;51.206;3.326;2023-10-31T04:05:21;10.10;99.90
44990;DHT22;30723;51.206;3.326;2023-10-31T04:07:48;10.20;99.90
44990;DHT22;30723;51.206;3.326;2023-10-31T04:10:15;10.10;99.90
44990;DHT22;30723;51.206;3.326;2023-10-31T04:12:41;10.10;99.90
44990;DHT22;30723;51.206;3.326;2023-10-31T04:15:08;10.00;99.90
44990;DHT22;30723;51.206;3.326;2023-10-31T04:17:34;10.00;99.90
44990;DHT22;30723;51.206;3.326;2023-10-31T04:20:01;10.00;99.90
44990;DHT22;30723;51.206;3.326;2023-10-31T04:22:27;9.90;99.90
44990;DHT22;30723;51.206;3.326;2023-10-31T04:24:52;10.00;99.90
44990;DHT22;30723;51.206;3.326;2023-10-31T04:27:18;10.00;99.90
44990;DHT22;30723;51.206;3.326;2023-10-31T04:29:44;9.90;99.90
44990;DHT22;30723;51.206;3.326;2023-10-31T04:32:10;9.90;99.90
44990;DHT22;30723;51.206;3.326;2023-10-31T04:34:36;9.90;99.90
44990;DHT22;30723;51.206;3.326;2023-10-31T04:37:02;9.90;99.90
44990;DHT22;30723;51.206;3.326;2023-10-31T04:39:27;9.80;99.90
44990;DHT22;30723;51.206;3.326;2023-10-31T04:41:53;9.80;99.90
44990;DHT22;30723;51.206;3.326;2023-10-31T04:44:19;9.80;99.90
44990;DHT22;30723;51.206;3.326;2023-10-31T04:46:45;9.80;99.90
44990;DHT22;30723;51.206;3.326;2023-10-31T04:49:10;9.80;99.90
44990;DHT22;30723;51.206;3.326;2023-10-31T04:51:37;9.70;99.90
44990;DHT22;30723;51.206;3.326;2023-10-31T04:54:03;9.70;99.90
44990;DHT22;30723;51.206;3.326;2023-10-31T04:56:29;9.70;99.90
44990;DHT22;30723;51.206;3.326;2023-10-31T04:58:55;9.70;99.90
44990;DHT22;30723;51.206;3.326;2023-10-31T05:01:21;9.70;99.90
44990;DHT22;30723;51.206;3.326;2023-10-31T05:03:47;9.70;99.90
44990;DHT22;30723;51.206;3.326;2023-10-31T05:06:13;9.70;99.90
44990;DHT22;30723;51.206;3.326;2023-10-31T05:08:39;9.60;99.90
44990;DHT22;30723;51.206;3.326;2023-10-31T05:11:04;9.60;99.90
44990;DHT22;30723;51.206;3.326;2023-10-31T05:13:30;9.70;99.90
44990;DHT22;30723;51.206;3.326;2023-10-31T05:15:58;9.60;99.90
44990;DHT22;30723;51.206;3.326;2023-10-31T05:18:24;9.60;99.90
44990;DHT22;30723;51.206;3.326;2023-10-31T05:20:49;9.60;99.90
44990;DHT22;30723;51.206;3.326;2023-10-31T05:23:15;9.50;99.90
44990;DHT22;30723;51.206;3.326;2023-10-31T05:25:41;9.50;99.90
44990;DHT22;30723;51.206;3.326;2023-10-31T05:28:07;9.50;99.90
44990;DHT22;30723;51.206;3.326;2023-10-31T05:30:32;9.50;99.90
44990;DHT22;30723;51.206;3.326;2023-10-31T05:32:58;9.50;99.90
44990;DHT22;30723;51.206;3.326;2023-10-31T05:35:24;9.50;99.90
44990;DHT22;30723;51.206;3.326;2023-10-31T05:37:50;9.40;99.90
44990;DHT22;30723;51.206;3.326;2023-10-31T05:40:16;9.40;99.90
44990;DHT22;30723;51.206;3.326;2023-10-31T05:42:42;9.40;99.90
44990;DHT22;30723;51.206;3.326;2023-10-31T05:45:08;9.40;99.90
44990;DHT22;30723;51.206;3.326;2023-10-31T05:47:34;9.40;99.90
44990;DHT22;30723;51.206;3.326;2023-10-31T05:49:59;9.40;99.90
44990;DHT22;30723;51.206;3.326;2023-10-31T05:52:31;9.40;99.90
44990;DHT22;30723;51.206;3.326;2023-10-31T05:54:59;9.40;99.90
44990;DHT22;30723;51.206;3.326;2023-10-31T05:57:25;9.40;99.90
44990;DHT22;30723;51.206;3.326;2023-10-31T05:59:51;9.40;99.90
44990;DHT22;30723;51.206;3.326;2023-10-31T06:02:17;9.40;99.90
44990;DHT22;30723;51.206;3.326;2023-10-31T06:04:43;9.30;99.90
44990;DHT22;30723;51.206;3.326;2023-10-31T06:07:10;9.30;99.90
44990;DHT22;30723;51.206;3.326;2023-10-31T06:09:37;9.20;99.90
44990;DHT22;30723;51.206;3.326;2023-10-31T06:12:03;9.20;99.90
44990;DHT22;30723;51.206;3.326;2023-10-31T06:14:28;9.20;99.90
44990;DHT22;30723;51.206;3.326;2023-10-31T06:16:54;9.20;99.90
44990;DHT22;30723;51.206;3.326;2023-10-31T06:19:22;9.20;99.90
44990;DHT22;30723;51.206;3.326;2023-10-31T06:21:47;9.20;99.90
44990;DHT22;30723;51.206;3.326;2023-10-31T06:24:13;9.20;99.90
44990;DHT22;30723;51.206;3.326;2023-10-31T06:26:39;9.20;99.90
44990;DHT22;30723;51.206;3.326;2023-10-31T06:29:05;9.30;99.90
44990;DHT22;30723;51.206;3.326;2023-10-31T06:31:31;9.20;99.90
44990;DHT22;30723;51.206;3.326;2023-10-31T06:33:57;9.20;99.90
44990;DHT22;30723;51.206;3.326;2023-10-31T06:36:22;9.20;99.90
44990;DHT22;30723;51.206;3.326;2023-10-31T06:38:48;9.20;99.90
44990;DHT22;30723;51.206;3.326;2023-10-31T06:41:14;9.10;99.90
44990;DHT22;30723;51.206;3.326;2023-10-31T06:43:40;9.10;99.90
44990;DHT22;30723;51.206;3.326;2023-10-31T06:46:05;9.10;99.90
44990;DHT22;30723;51.206;3.326;2023-10-31T06:48:32;9.10;99.90
44990;DHT22;30723;51.206;3.326;2023-10-31T06:50:58;9.10;99.90
44990;DHT22;30723;51.206;3.326;2023-10-31T06:53:23;9.20;99.90
44990;DHT22;30723;51.206;3.326;2023-10-31T06:55:49;9.20;99.90
44990;DHT22;30723;51.206;3.326;2023-10-31T06:58:15;9.30;99.90
44990;DHT22;30723;51.206;3.326;2023-10-31T07:00:41;9.30;99.90
44990;DHT22;30723;51.206;3.326;2023-10-31T07:03:06;9.30;99.90
44990;DHT22;30723;51.206;3.326;2023-10-31T07:05:38;9.40;99.90
44990;DHT22;30723;51.206;3.326;2023-10-31T07:08:04;9.50;99.90
44990;DHT22;30723;51.206;3.326;2023-10-31T07:10:30;9.50;99.90
44990;DHT22;30723;51.206;3.326;2023-10-31T07:12:56;9.60;99.90
44990;DHT22;30723;51.206;3.326;2023-10-31T07:15:27;9.60;99.90
44990;DHT22;30723;51.206;3.326;2023-10-31T07:17:53;9.60;99.90
44990;DHT22;30723;51.206;3.326;2023-10-31T07:20:18;9.60;99.90
44990;DHT22;30723;51.206;3.326;2023-10-31T07:22:44;9.70;99.90
44990;DHT22;30723;51.206;3.326;2023-10-31T07:25:10;9.70;99.90
44990;DHT22;30723;51.206;3.326;2023-10-31T07:27:36;9.70;99.90
44990;DHT22;30723;51.206;3.326;2023-10-31T07:30:05;9.80;99.90
44990;DHT22;30723;51.206;3.326;2023-10-31T07:32:32;9.80;99.90
44990;DHT22;30723;51.206;3.326;2023-10-31T07:34:58;9.80;99.90
44990;DHT22;30723;51.206;3.326;2023-10-31T07:37:23;9.80;99.90
44990;DHT22;30723;51.206;3.326;2023-10-31T07:39:49;9.80;99.90
44990;DHT22;30723;51.206;3.326;2023-10-31T07:42:16;9.80;99.90
44990;DHT22;30723;51.206;3.326;2023-10-31T07:44:42;9.80;99.90
44990;DHT22;30723;51.206;3.326;2023-10-31T07:47:08;9.90;99.90
44990;DHT22;30723;51.206;3.326;2023-10-31T07:49:33;10.00;99.90
44990;DHT22;30723;51.206;3.326;2023-10-31T07:51:59;10.00;99.90
44990;DHT22;30723;51.206;3.326;2023-10-31T07:54:25;10.10;99.90
44990;DHT22;30723;51.206;3.326;2023-10-31T07:56:53;10.20;99.90
44990;DHT22;30723;51.206;3.326;2023-10-31T07:59:20;10.20;99.90
44990;DHT22;30723;51.206;3.326;2023-10-31T08:01:47;10.20;99.90
44990;DHT22;30723;51.206;3.326;2023-10-31T08:04:14;10.20;99.90
44990;DHT22;30723;51.206;3.326;2023-10-31T08:06:40;10.30;99.90
44990;DHT22;30723;51.206;3.326;2023-10-31T08:09:06;10.30;99.90
44990;DHT22;30723;51.206;3.326;2023-10-31T08:11:32;10.30;99.90
44990;DHT22;30723;51.206;3.326;2023-10-31T08:14:00;10.40;99.90
44990;DHT22;30723;51.206;3.326;2023-10-31T08:16:27;10.60;99.90
44990;DHT22;30723;51.206;3.326;2023-10-31T08:18:53;10.60;99.90
44990;DHT22;30723;51.206;3.326;2023-10-31T08:21:19;10.80;99.90
44990;DHT22;30723;51.206;3.326;2023-10-31T08:23:45;10.90;99.90
44990;DHT22;30723;51.206;3.326;2023-10-31T08:26:12;10.90;99.90
44990;DHT22;30723;51.206;3.326;2023-10-31T08:28:38;11.00;99.90
44990;DHT22;30723;51.206;3.326;2023-10-31T08:31:04;11.00;99.90
44990;DHT22;30723;51.206;3.326;2023-10-31T08:33:30;10.90;99.90
44990;DHT22;30723;51.206;3.326;2023-10-31T08:35:55;10.90;99.90
44990;DHT22;30723;51.206;3.326;2023-10-31T08:38:21;10.90;99.90
44990;DHT22;30723;51.206;3.326;2023-10-31T08:40:48;11.00;99.90
44990;DHT22;30723;51.206;3.326;2023-10-31T08:43:15;10.90;99.90
44990;DHT22;30723;51.206;3.326;2023-10-31T08:45:40;11.00;99.90
44990;DHT22;30723;51.206;3.326;2023-10-31T08:48:06;10.90;99.90
44990;DHT22;30723;51.206;3.326;2023-10-31T08:50:32;11.00;99.90
44990;DHT22;30723;51.206;3.326;2023-10-31T08:52:57;11.00;99.90
44990;DHT22;30723;51.206;3.326;2023-10-31T08:55:23;10.90;99.90
44990;DHT22;30723;51.206;3.326;2023-10-31T08:57:49;11.00;99.90
44990;DHT22;30723;51.206;3.326;2023-10-31T09:00:18;11.00;99.90
44990;DHT22;30723;51.206;3.326;2023-10-31T09:02:45;11.20;99.90
44990;DHT22;30723;51.206;3.326;2023-10-31T09:05:10;11.30;99.90
44990;DHT22;30723;51.206;3.326;2023-10-31T09:07:36;11.40;99.90
44990;DHT22;30723;51.206;3.326;2023-10-31T09:10:02;11.60;99.90
44990;DHT22;30723;51.206;3.326;2023-10-31T09:12:30;11.80;99.90
44990;DHT22;30723;51.206;3.326;2023-10-31T09:14:56;12.10;99.90
44990;DHT22;30723;51.206;3.326;2023-10-31T09:17:22;12.30;99.90
44990;DHT22;30723;51.206;3.326;2023-10-31T09:19:48;12.40;99.90
44990;DHT22;30723;51.206;3.326;2023-10-31T09:22:13;12.40;99.90
44990;DHT22;30723;51.206;3.326;2023-10-31T09:24:40;12.50;99.90
44990;DHT22;30723;51.206;3.326;2023-10-31T09:27:06;12.70;99.90
44990;DHT22;30723;51.206;3.326;2023-10-31T09:29:31;12.80;99.90
44990;DHT22;30723;51.206;3.326;2023-10-31T09:31:57;12.80;99.90
44990;DHT22;30723;51.206;3.326;2023-10-31T09:34:24;12.80;99.90
44990;DHT22;30723;51.206;3.326;2023-10-31T09:36:49;12.90;99.90
44990;DHT22;30723;51.206;3.326;2023-10-31T09:39:15;13.00;99.90
44990;DHT22;30723;51.206;3.326;2023-10-31T09:41:41;13.10;99.90
44990;DHT22;30723;51.206;3.326;2023-10-31T09:44:07;13.20;99.90
44990;DHT22;30723;51.206;3.326;2023-10-31T09:46:34;13.30;99.90
44990;DHT22;30723;51.206;3.326;2023-10-31T09:49:00;13.20;99.90
44990;DHT22;30723;51.206;3.326;2023-10-31T09:51:27;13.10;99.90
44990;DHT22;30723;51.206;3.326;2023-10-31T09:53:54;12.90;99.90
44990;DHT22;30723;51.206;3.326;2023-10-31T09:56:21;12.80;99.90
44990;DHT22;30723;51.206;3.326;2023-10-31T09:58:47;12.60;99.90
44990;DHT22;30723;51.206;3.326;2023-10-31T10:01:13;12.60;99.90
44990;DHT22;30723;51.206;3.326;2023-10-31T10:03:41;12.60;99.90
44990;DHT22;30723;51.206;3.326;2023-10-31T10:06:08;12.70;99.90
44990;DHT22;30723;51.206;3.326;2023-10-31T10:08:37;12.70;99.90
44990;DHT22;30723;51.206;3.326;2023-10-31T10:11:04;12.70;99.90
44990;DHT22;30723;51.206;3.326;2023-10-31T10:13:30;12.70;99.90
44990;DHT22;30723;51.206;3.326;2023-10-31T10:15:56;12.60;99.90
44990;DHT22;30723;51.206;3.326;2023-10-31T10:18:29;12.50;99.90
44990;DHT22;30723;51.206;3.326;2023-10-31T10:21:00;12.60;99.90
44990;DHT22;30723;51.206;3.326;2023-10-31T10:23:26;12.60;99.90
44990;DHT22;30723;51.206;3.326;2023-10-31T10:25:53;12.50;99.90
44990;DHT22;30723;51.206;3.326;2023-10-31T10:28:19;12.40;99.90
44990;DHT22;30723;51.206;3.326;2023-10-31T10:30:46;12.30;99.90
44990;DHT22;30723;51.206;3.326;2023-10-31T10:33:15;12.20;99.90
44990;DHT22;30723;51.206;3.326;2023-10-31T10:35:42;12.20;99.90
44990;DHT22;30723;51.206;3.326;2023-10-31T10:38:12;12.10;99.90
44990;DHT22;30723;51.206;3.326;2023-10-31T10:40:45;12.10;99.90
44990;DHT22;30723;51.206;3.326;2023-10-31T10:43:22;11.90;99.90
44990;DHT22;30723;51.206;3.326;2023-10-31T10:45:54;11.90;99.90
44990;DHT22;30723;51.206;3.326;2023-10-31T10:48:27;12.00;99.90
44990;DHT22;30723;51.206;3.326;2023-10-31T10:54:10;12.10;99.90
44990;DHT22;30723;51.206;3.326;2023-10-31T10:56:46;12.10;99.90
44990;DHT22;30723;51.206;3.326;2023-10-31T10:59:19;12.10;99.90
44990;DHT22;30723;51.206;3.326;2023-10-31T11:01:49;12.00;99.90
44990;DHT22;30723;51.206;3.326;2023-10-31T11:04:15;11.90;99.90
44990;DHT22;30723;51.206;3.326;2023-10-31T11:06:43;11.80;99.90
44990;DHT22;30723;51.206;3.326;2023-10-31T11:09:10;11.70;99.90
44990;DHT22;30723;51.206;3.326;2023-10-31T11:11:40;11.70;99.90
44990;DHT22;30723;51.206;3.326;2023-10-31T11:14:06;11.60;99.90
44990;DHT22;30723;51.206;3.326;2023-10-31T11:16:43;11.60;99.90
44990;DHT22;30723;51.206;3.326;2023-10-31T11:19:10;11.70;99.90
44990;DHT22;30723;51.206;3.326;2023-10-31T11:21:36;11.60;99.90
44990;DHT22;30723;51.206;3.326;2023-10-31T11:24:02;11.70;99.90
44990;DHT22;30723;51.206;3.326;2023-10-31T11:26:32;11.70;99.90
44990;DHT22;30723;51.206;3.326;2023-10-31T11:29:07;11.70;99.90
44990;DHT22;30723;51.206;3.326;2023-10-31T11:31:37;11.80;99.90
44990;DHT22;30723;51.206;3.326;2023-10-31T11:34:03;11.80;99.90
44990;DHT22;30723;51.206;3.326;2023-10-31T11:36:32;11.90;99.90
44990;DHT22;30723;51.206;3.326;2023-10-31T11:39:15;11.90;99.90
44990;DHT22;30723;51.206;3.326;2023-10-31T11:41:49;11.90;99.90
44990;DHT22;30723;51.206;3.326;2023-10-31T11:44:18;12.00;99.90
44990;DHT22;30723;51.206;3.326;2023-10-31T11:46:47;12.00;99.90
44990;DHT22;30723;51.206;3.326;2023-10-31T11:49:16;12.00;99.90
44990;DHT22;30723;51.206;3.326;2023-10-31T11:51:45;12.10;99.90
44990;DHT22;30723;51.206;3.326;2023-10-31T11:54:14;12.20;99.90
44990;DHT22;30723;51.206;3.326;2023-10-31T11:56:40;12.30;99.90
44990;DHT22;30723;51.206;3.326;2023-10-31T11:59:06;12.30;99.90
44990;DHT22;30723;51.206;3.326;2023-10-31T12:01:44;12.40;99.90
44990;DHT22;30723;51.206;3.326;2023-10-31T12:04:21;12.50;99.90
44990;DHT22;30723;51.206;3.326;2023-10-31T12:06:57;12.50;99.90
44990;DHT22;30723;51.206;3.326;2023-10-31T12:09:23;12.50;99.90
44990;DHT22;30723;51.206;3.326;2023-10-31T12:11:48;12.50;99.90
44990;DHT22;30723;51.206;3.326;2023-10-31T12:14:18;12.50;99.90
44990;DHT22;30723;51.206;3.326;2023-10-31T12:16:46;12.40;99.90
44990;DHT22;30723;51.206;3.326;2023-10-31T12:19:12;12.40;99.90
44990;DHT22;30723;51.206;3.326;2023-10-31T12:21:43;12.40;99.90
44990;DHT22;30723;51.206;3.326;2023-10-31T12:24:13;12.50;99.90
44990;DHT22;30723;51.206;3.326;2023-10-31T12:26:40;12.50;99.90
44990;DHT22;30723;51.206;3.326;2023-10-31T12:31:42;12.50;99.90
44990;DHT22;30723;51.206;3.326;2023-10-31T12:34:09;12.50;99.90
44990;DHT22;30723;51.206;3.326;2023-10-31T12:36:36;12.50;99.90
44990;DHT22;30723;51.206;3.326;2023-10-31T12:39:04;12.50;99.90
44990;DHT22;30723;51.206;3.326;2023-10-31T12:41:32;12.60;99.90
44990;DHT22;30723;51.206;3.326;2023-10-31T12:43:59;12.70;99.90
44990;DHT22;30723;51.206;3.326;2023-10-31T12:46:29;12.70;99.90
44990;DHT22;30723;51.206;3.326;2023-10-31T12:48:59;12.70;99.90
44990;DHT22;30723;51.206;3.326;2023-10-31T12:51:25;12.80;99.90
44990;DHT22;30723;51.206;3.326;2023-10-31T12:53:52;13.00;99.90
44990;DHT22;30723;51.206;3.326;2023-10-31T12:56:38;13.30;99.90
44990;DHT22;30723;51.206;3.326;2023-10-31T12:59:06;13.70;99.90
44990;DHT22;30723;51.206;3.326;2023-10-31T13:01:36;13.80;99.90
44990;DHT22;30723;51.206;3.326;2023-10-31T13:04:06;13.80;99.90
44990;DHT22;30723;51.206;3.326;2023-10-31T13:06:32;13.70;99.90
44990;DHT22;30723;51.206;3.326;2023-10-31T13:08:58;13.70;99.90
44990;DHT22;30723;51.206;3.326;2023-10-31T13:11:29;13.60;99.90
44990;DHT22;30723;51.206;3.326;2023-10-31T13:13:54;13.70;99.90
44990;DHT22;30723;51.206;3.326;2023-10-31T13:16:20;13.90;99.90
44990;DHT22;30723;51.206;3.326;2023-10-31T13:18:46;13.90;99.90
44990;DHT22;30723;51.206;3.326;2023-10-31T13:21:12;13.90;99.90
44990;DHT22;30723;51.206;3.326;2023-10-31T13:23:41;13.90;99.90
44990;DHT22;30723;51.206;3.326;2023-10-31T13:26:09;14.00;99.90
44990;DHT22;30723;51.206;3.326;2023-10-31T13:28:35;14.00;99.90
44990;DHT22;30723;51.206;3.326;2023-10-31T13:31:01;14.00;99.90
44990;DHT22;30723;51.206;3.326;2023-10-31T13:33:28;14.00;99.90
44990;DHT22;30723;51.206;3.326;2023-10-31T13:35:53;14.00;99.90
44990;DHT22;30723;51.206;3.326;2023-10-31T13:38:21;13.90;99.90
44990;DHT22;30723;51.206;3.326;2023-10-31T13:40:47;13.90;99.90
44990;DHT22;30723;51.206;3.326;2023-10-31T13:43:13;14.10;99.90
44990;DHT22;30723;51.206;3.326;2023-10-31T13:45:39;14.40;99.90
44990;DHT22;30723;51.206;3.326;2023-10-31T13:48:05;14.50;99.90
44990;DHT22;30723;51.206;3.326;2023-10-31T13:50:30;14.60;99.90
44990;DHT22;30723;51.206;3.326;2023-10-31T13:52:56;14.50;99.90
44990;DHT22;30723;51.206;3.326;2023-10-31T13:55:22;14.60;99.90
44990;DHT22;30723;51.206;3.326;2023-10-31T13:57:49;14.60;99.90
44990;DHT22;30723;51.206;3.326;2023-10-31T14:00:15;14.60;99.90
44990;DHT22;30723;51.206;3.326;2023-10-31T14:02:41;14.60;99.90
44990;DHT22;30723;51.206;3.326;2023-10-31T14:05:07;14.60;99.90
44990;DHT22;30723;51.206;3.326;2023-10-31T14:07:33;14.50;99.90
44990;DHT22;30723;51.206;3.326;2023-10-31T14:10:00;14.50;99.90
44990;DHT22;30723;51.206;3.326;2023-10-31T14:12:26;14.50;99.90
44990;DHT22;30723;51.206;3.326;2023-10-31T14:14:54;14.60;99.90
44990;DHT22;30723;51.206;3.326;2023-10-31T14:17:19;14.80;99.90
44990;DHT22;30723;51.206;3.326;2023-10-31T14:19:48;14.80;99.90
44990;DHT22;30723;51.206;3.326;2023-10-31T14:22:14;14.70;99.90
44990;DHT22;30723;51.206;3.326;2023-10-31T14:24:40;14.70;99.90
44990;DHT22;30723;51.206;3.326;2023-10-31T14:27:05;14.60;99.90
44990;DHT22;30723;51.206;3.326;2023-10-31T14:29:31;14.50;99.90
44990;DHT22;30723;51.206;3.326;2023-10-31T14:32:04;14.40;99.90
44990;DHT22;30723;51.206;3.326;2023-10-31T14:34:30;14.20;99.90
44990;DHT22;30723;51.206;3.326;2023-10-31T14:36:55;14.20;99.90
44990;DHT22;30723;51.206;3.326;2023-10-31T14:39:21;14.10;99.90
44990;DHT22;30723;51.206;3.326;2023-10-31T14:41:47;14.00;99.90
44990;DHT22;30723;51.206;3.326;2023-10-31T14:44:13;13.80;99.90
44990;DHT22;30723;51.206;3.326;2023-10-31T14:46:38;13.80;99.90
44990;DHT22;30723;51.206;3.326;2023-10-31T14:49:05;13.70;99.90
44990;DHT22;30723;51.206;3.326;2023-10-31T14:51:31;13.60;99.90
44990;DHT22;30723;51.206;3.326;2023-10-31T14:53:56;13.60;99.90
44990;DHT22;30723;51.206;3.326;2023-10-31T14:56:23;13.60;99.90
44990;DHT22;30723;51.206;3.326;2023-10-31T14:58:49;13.70;99.90
44990;DHT22;30723;51.206;3.326;2023-10-31T15:01:15;13.70;99.90
44990;DHT22;30723;51.206;3.326;2023-10-31T15:03:41;13.70;99.90
44990;DHT22;30723;51.206;3.326;2023-10-31T15:06:07;13.80;99.90
44990;DHT22;30723;51.206;3.326;2023-10-31T15:08:33;13.90;99.90
44990;DHT22;30723;51.206;3.326;2023-10-31T15:10:59;14.00;99.90
44990;DHT22;30723;51.206;3.326;2023-10-31T15:13:25;14.00;99.90
44990;DHT22;30723;51.206;3.326;2023-10-31T15:15:51;14.10;99.90
44990;DHT22;30723;51.206;3.326;2023-10-31T15:18:17;14.10;99.90
44990;DHT22;30723;51.206;3.326;2023-10-31T15:20:43;14.10;99.90
44990;DHT22;30723;51.206;3.326;2023-10-31T15:23:09;14.10;99.90
44990;DHT22;30723;51.206;3.326;2023-10-31T15:25:35;14.00;99.90
44990;DHT22;30723;51.206;3.326;2023-10-31T15:28:00;13.90;99.90
44990;DHT22;30723;51.206;3.326;2023-10-31T15:30:26;13.90;99.90
44990;DHT22;30723;51.206;3.326;2023-10-31T15:32:52;13.90;99.90
44990;DHT22;30723;51.206;3.326;2023-10-31T15:35:18;13.90;99.90
44990;DHT22;30723;51.206;3.326;2023-10-31T15:37:43;13.90;99.90